createdAt,value
2023-03-27T00:02:21.367Z,96209.20
2023-03-27T00:04:47.893Z,96208.30
2023-03-27T00:07:14.185Z,96203.84
2023-03-27T00:09:40.506Z,96195.98
2023-03-27T00:12:06.833Z,96188.98
2023-03-27T00:14:33.100Z,96187.11
2023-03-27T00:16:59.493Z,96192.14
2023-03-27T00:19:25.923Z,96195.00
2023-03-27T00:21:52.232Z,96195.66
2023-03-27T00:24:18.668Z,96191.83
2023-03-27T00:26:45.027Z,96190.55
2023-03-27T00:29:11.312Z,96191.13
2023-03-27T00:31:37.626Z,96194.34
2023-03-27T00:34:04.139Z,96191.42
2023-03-27T00:36:31.244Z,96191.52
2023-03-27T00:38:57.641Z,96193.77
2023-03-27T00:41:23.924Z,96195.80
2023-03-27T00:43:52.202Z,96195.42
2023-03-27T00:46:34.181Z,96189.98
2023-03-27T00:49:02.284Z,96187.16
2023-03-27T00:51:28.677Z,96190.61
2023-03-27T00:53:55.638Z,96186.20
2023-03-27T00:56:22.890Z,96187.55
2023-03-27T00:58:51.850Z,96185.04
2023-03-27T01:01:21.094Z,96181.86
2023-03-27T01:03:48.460Z,96180.41
2023-03-27T01:06:15.901Z,96176.69
2023-03-27T01:08:44.506Z,96170.91
2023-03-27T01:11:19.411Z,96170.03
2023-03-27T01:13:59.939Z,96167.35
2023-03-27T01:16:32.772Z,96164.79
2023-03-27T01:19:11.581Z,96159.60
2023-03-27T01:21:46.043Z,96155.76
2023-03-27T01:24:12.344Z,96151.94
2023-03-27T01:26:57.845Z,96147.98
2023-03-27T01:29:30.812Z,96145.43
2023-03-27T01:32:01.053Z,96144.56
2023-03-27T01:34:46.363Z,96144.59
2023-03-27T01:37:12.706Z,96138.91
2023-03-27T01:39:38.992Z,96131.70
2023-03-27T01:42:15.758Z,96127.89
2023-03-27T01:44:57.367Z,96121.29
2023-03-27T01:47:26.934Z,96121.09
2023-03-27T01:50:03.394Z,96113.15
2023-03-27T01:52:32.301Z,96106.56
2023-03-27T01:55:01.206Z,96107.45
2023-03-27T01:57:30.160Z,96104.98
2023-03-27T02:00:17.597Z,96109.52
2023-03-27T02:02:49.158Z,96109.52
2023-03-27T02:05:26.052Z,96111.02
2023-03-27T02:07:55.176Z,96107.40
2023-03-27T02:10:24.737Z,96101.52
2023-03-27T02:12:58.057Z,96097.05
2023-03-27T02:15:29.594Z,96093.48
2023-03-27T02:18:00.305Z,96088.48
2023-03-27T02:20:26.723Z,96092.20
2023-03-27T02:22:56.476Z,96088.65
2023-03-27T02:25:27.953Z,96088.40
2023-03-27T02:28:17.541Z,96079.67
2023-03-27T02:31:06.478Z,96078.96
2023-03-27T02:33:41.949Z,96081.57
2023-03-27T02:36:11.745Z,96083.45
2023-03-27T02:38:51.533Z,96084.05
2023-03-27T02:41:30.457Z,96085.14
2023-03-27T02:44:30.090Z,96088.48
2023-03-27T02:47:00.511Z,96087.87
2023-03-27T02:49:31.958Z,96094.48
2023-03-27T02:52:01.799Z,96096.71
2023-03-27T02:54:33.739Z,96094.27
2023-03-27T02:57:04.496Z,96095.29
2023-03-27T02:59:55.673Z,96099.89
2023-03-27T03:02:25.350Z,96102.56
2023-03-27T03:04:59.010Z,96105.17
2023-03-27T03:07:34.168Z,96106.36
2023-03-27T03:10:00.523Z,96111.39
2023-03-27T03:12:26.847Z,96116.08
2023-03-27T03:14:54.207Z,96118.46
2023-03-27T03:17:20.543Z,96114.98
2023-03-27T03:19:46.842Z,96117.82
2023-03-27T03:22:13.107Z,96117.89
2023-03-27T03:24:39.375Z,96116.66
2023-03-27T03:27:06.897Z,96114.88
2023-03-27T03:29:41.329Z,96118.75
2023-03-27T03:32:14.762Z,96118.21
2023-03-27T03:34:42.452Z,96118.65
2023-03-27T03:37:09.247Z,96118.25
2023-03-27T03:39:35.745Z,96116.36
2023-03-27T03:42:02.282Z,96121.06
2023-03-27T03:44:28.555Z,96121.98
2023-03-27T03:46:55.411Z,96119.83
2023-03-27T03:49:21.811Z,96117.82
2023-03-27T03:52:04.453Z,96117.57
2023-03-27T03:54:32.108Z,96115.08
2023-03-27T03:56:58.478Z,96112.97
2023-03-27T03:59:25.257Z,96118.20
2023-03-27T04:02:17.823Z,96118.23
2023-03-27T04:04:46.498Z,96117.88
2023-03-27T04:07:13.899Z,96118.73
2023-03-27T04:09:43.739Z,96119.59
2023-03-27T04:12:16.813Z,96119.80
2023-03-27T04:14:50.113Z,96122.77
2023-03-27T04:17:43.573Z,96126.65
2023-03-27T04:20:11.398Z,96129.45
2023-03-27T04:22:37.937Z,96126.56
2023-03-27T04:25:07.541Z,96128.70
2023-03-27T04:27:34.663Z,96124.94
2023-03-27T04:30:12.790Z,96122.84
2023-03-27T04:33:08.156Z,96122.56
2023-03-27T04:36:06.959Z,96119.07
2023-03-27T04:39:00.061Z,96114.98
2023-03-27T04:41:26.463Z,96112.90
2023-03-27T04:43:52.734Z,96116.22
2023-03-27T04:46:19.174Z,96117.41
2023-03-27T04:48:50.086Z,96117.13
2023-03-27T04:51:26.025Z,96116.52
2023-03-27T04:53:52.700Z,96115.92
2023-03-27T04:56:19.042Z,96116.27
2023-03-27T04:58:45.407Z,96117.30
2023-03-27T05:01:12.345Z,96116.84
2023-03-27T05:04:07.919Z,96117.16
2023-03-27T05:07:00.690Z,96115.83
2023-03-27T05:09:27.002Z,96117.49
2023-03-27T05:11:53.646Z,96121.89
2023-03-27T05:14:21.193Z,96120.00
2023-03-27T05:16:48.888Z,96122.45
2023-03-27T05:19:15.971Z,96123.88
2023-03-27T05:21:49.033Z,96121.67
2023-03-27T05:24:15.771Z,96119.75
2023-03-27T05:26:42.780Z,96116.72
2023-03-27T05:29:09.320Z,96115.38
2023-03-27T05:31:38.115Z,96116.09
2023-03-27T05:34:27.734Z,96115.79
2023-03-27T05:36:55.549Z,96112.92
2023-03-27T05:39:21.917Z,96113.77
2023-03-27T05:41:48.811Z,96114.10
2023-03-27T05:44:21.333Z,96119.09
2023-03-27T05:46:48.078Z,96119.63
2023-03-27T05:49:17.654Z,96117.04
2023-03-27T05:51:46.791Z,96119.08
2023-03-27T05:54:18.286Z,96125.92
2023-03-27T05:56:53.131Z,96125.13
2023-03-27T05:59:19.437Z,96126.05
2023-03-27T06:01:47.485Z,96126.60
2023-03-27T06:04:14.680Z,96131.45
2023-03-27T06:07:07.803Z,96132.31
2023-03-27T06:09:35.038Z,96136.27
2023-03-27T06:12:19.845Z,96141.36
2023-03-27T06:14:48.013Z,96144.18
2023-03-27T06:17:33.339Z,96149.73
2023-03-27T06:20:02.112Z,96154.21
2023-03-27T06:22:31.313Z,96157.50
2023-03-27T06:25:00.218Z,96160.88
2023-03-27T06:27:27.096Z,96167.98
2023-03-27T06:29:53.435Z,96169.14
2023-03-27T06:32:19.906Z,96178.23
2023-03-27T06:34:51.554Z,96176.21
2023-03-27T06:37:49.406Z,96179.48
2023-03-27T06:40:19.083Z,96187.09
2023-03-27T06:42:49.547Z,96191.66
2023-03-27T06:45:23.400Z,96196.34
2023-03-27T06:48:22.548Z,96198.17
2023-03-27T06:50:52.396Z,96198.30
2023-03-27T06:55:49.693Z,96204.65
2023-03-27T06:58:16.256Z,96205.20
2023-03-27T07:00:43.211Z,96206.27
2023-03-27T07:03:30.403Z,96210.67
2023-03-27T07:06:15.347Z,96215.34
2023-03-27T07:09:08.327Z,96214.46
2023-03-27T07:11:34.808Z,96215.87
2023-03-27T07:14:07.135Z,96216.16
2023-03-27T07:16:33.850Z,96217.73
2023-03-27T07:19:02.266Z,96218.66
2023-03-27T07:21:29.848Z,96221.01
2023-03-27T07:23:57.860Z,96217.20
2023-03-27T07:26:32.891Z,96222.67
2023-03-27T07:29:01.068Z,96219.19
2023-03-27T07:31:39.480Z,96225.94
2023-03-27T07:34:15.366Z,96229.05
2023-03-27T07:37:00.513Z,96234.96
2023-03-27T07:39:27.012Z,96238.36
2023-03-27T07:41:53.496Z,96245.41
2023-03-27T07:44:29.767Z,96246.58
2023-03-27T07:47:00.479Z,96249.42
2023-03-27T07:49:39.286Z,96257.55
2023-03-27T07:52:07.813Z,96253.52
2023-03-27T07:54:36.806Z,96257.88
2023-03-27T07:57:03.208Z,96255.78
2023-03-27T07:59:32.576Z,96256.23
2023-03-27T08:02:06.811Z,96265.30
2023-03-27T08:04:36.538Z,96264.03
2023-03-27T08:07:04.827Z,96269.09
2023-03-27T08:09:31.329Z,96270.21
2023-03-27T08:11:58.124Z,96270.13
2023-03-27T08:14:24.676Z,96275.97
2023-03-27T08:16:51.513Z,96278.42
2023-03-27T08:19:20.414Z,96280.05
2023-03-27T08:21:51.333Z,96282.01
2023-03-27T08:24:17.813Z,96282.14
2023-03-27T08:27:03.155Z,96286.45
2023-03-27T08:29:30.651Z,96289.15
2023-03-27T08:31:57.237Z,96288.48
2023-03-27T08:34:24.066Z,96292.21
2023-03-27T08:36:50.832Z,96292.85
2023-03-27T08:39:17.122Z,96296.66
2023-03-27T08:41:58.212Z,96294.04
2023-03-27T08:44:36.012Z,96299.48
2023-03-27T08:47:13.977Z,96304.36
2023-03-27T08:49:56.802Z,96308.27
2023-03-27T08:52:42.445Z,96308.66
2023-03-27T08:55:18.004Z,96313.98
2023-03-27T08:58:01.219Z,96315.04
2023-03-27T09:00:31.064Z,96322.70
2023-03-27T09:03:05.703Z,96323.63
2023-03-27T09:05:51.133Z,96329.30
2023-03-27T09:08:50.340Z,96327.17
2023-03-27T09:11:24.032Z,96340.42
2023-03-27T09:13:56.099Z,96335.98
2023-03-27T09:16:30.152Z,96348.11
2023-03-27T09:19:03.490Z,96348.71
2023-03-27T09:21:42.787Z,96360.19
2023-03-27T09:24:23.279Z,96357.77
2023-03-27T09:27:21.421Z,96363.73
2023-03-27T09:30:09.934Z,96366.74
2023-03-27T09:32:47.607Z,96375.40
2023-03-27T09:35:15.108Z,96374.14
2023-03-27T09:37:41.715Z,96374.83
2023-03-27T09:40:18.183Z,96382.45
2023-03-27T09:42:47.698Z,96385.03
2023-03-27T09:45:14.735Z,96389.55
2023-03-27T09:48:01.630Z,96390.77
2023-03-27T09:50:44.278Z,96393.82
2023-03-27T09:53:58.588Z,96402.84
2023-03-27T09:56:28.869Z,96410.04
2023-03-27T09:58:55.449Z,96412.35
2023-03-27T10:01:29.950Z,96420.65
2023-03-27T10:04:10.503Z,96419.16
2023-03-27T10:06:41.732Z,96426.15
2023-03-27T10:09:22.488Z,96428.23
2023-03-27T10:11:50.715Z,96434.24
2023-03-27T10:14:24.686Z,96436.02
2023-03-27T10:16:51.931Z,96440.64
2023-03-27T10:19:20.568Z,96445.86
2023-03-27T10:21:47.887Z,96451.14
2023-03-27T10:24:34.083Z,96464.42
2023-03-27T10:27:23.468Z,96471.34
2023-03-27T10:30:24.614Z,96474.13
2023-03-27T10:32:52.364Z,96474.15
2023-03-27T10:35:42.739Z,96483.29
2023-03-27T10:38:15.652Z,96488.48
2023-03-27T10:40:51.042Z,96493.14
2023-03-27T10:43:32.831Z,96493.38
2023-03-27T10:46:01.275Z,96495.06
2023-03-27T10:48:47.121Z,96496.73
2023-03-27T10:51:46.130Z,96502.88
2023-03-27T10:54:37.251Z,96509.30
2023-03-27T10:57:09.279Z,96513.39
2023-03-27T10:59:54.951Z,96514.71
2023-03-27T11:02:42.721Z,96519.30
2023-03-27T11:05:09.711Z,96517.75
2023-03-27T11:07:39.069Z,96527.12
2023-03-27T11:10:15.078Z,96532.52
2023-03-27T11:12:45.083Z,96538.52
2023-03-27T11:15:15.050Z,96537.89
2023-03-27T11:17:45.806Z,96540.41
2023-03-27T11:20:22.516Z,96549.64
2023-03-27T11:23:29.400Z,96547.48
2023-03-27T11:26:47.904Z,96552.36
2023-03-27T11:29:22.050Z,96553.41
2023-03-27T11:31:54.595Z,96559.91
2023-03-27T11:34:45.676Z,96573.61
2023-03-27T11:37:31.429Z,96574.59
2023-03-27T11:40:01.969Z,96576.61
2023-03-27T11:42:31.684Z,96586.13
2023-03-27T11:44:58.669Z,96596.29
2023-03-27T11:47:51.685Z,96598.64
2023-03-27T11:50:24.439Z,96607.45
2023-03-27T11:53:00.555Z,96605.30
2023-03-27T11:55:58.923Z,96611.27
2023-03-27T11:58:36.337Z,96610.94
2023-03-27T12:01:20.817Z,96618.56
2023-03-27T12:03:57.123Z,96627.13
2023-03-27T12:06:33.784Z,96624.72
2023-03-27T12:09:01.347Z,96630.23
2023-03-27T12:11:30.069Z,96635.55
2023-03-27T12:14:18.545Z,96631.42
2023-03-27T12:17:00.029Z,96635.05
2023-03-27T12:19:43.047Z,96629.48
2023-03-27T12:22:46.400Z,96628.74
2023-03-27T12:25:41.520Z,96631.88
2023-03-27T12:28:45.647Z,96635.88
2023-03-27T12:31:51.048Z,96641.89
2023-03-27T12:34:30.372Z,96658.89
2023-03-27T12:36:57.456Z,96666.85
2023-03-27T12:39:26.576Z,96675.16
2023-03-27T12:41:55.731Z,96677.73
2023-03-27T12:44:32.027Z,96686.59
2023-03-27T12:47:18.216Z,96688.77
2023-03-27T12:49:48.094Z,96704.56
2023-03-27T12:52:22.776Z,96711.88
2023-03-27T12:55:12.658Z,96713.59
2023-03-27T12:58:03.839Z,96719.73
2023-03-27T13:00:57.076Z,96716.83
2023-03-27T13:03:32.864Z,96712.30
2023-03-27T13:06:04.405Z,96713.20
2023-03-27T13:08:34.061Z,96724.48
2023-03-27T13:11:21.874Z,96731.35
2023-03-27T13:14:09.435Z,96735.98
2023-03-27T13:17:02.443Z,96742.11
2023-03-27T13:19:41.882Z,96746.40
2023-03-27T13:22:19.164Z,96748.85
2023-03-27T13:24:54.521Z,96753.73
2023-03-27T13:27:34.460Z,96763.88
2023-03-27T13:30:01.467Z,96771.09
2023-03-27T13:32:38.900Z,96776.55
2023-03-27T13:35:31.237Z,96784.08
2023-03-27T13:37:57.858Z,96781.77
2023-03-27T13:40:30.030Z,96779.98
2023-03-27T13:43:11.258Z,96783.64
2023-03-27T13:45:37.707Z,96786.19
2023-03-27T13:48:44.475Z,96791.54
2023-03-27T13:51:30.384Z,96791.67
2023-03-27T13:54:24.922Z,96797.59
2023-03-27T13:56:54.471Z,96802.36
2023-03-27T13:59:40.448Z,96806.46
2023-03-27T14:02:33.758Z,96816.96
2023-03-27T14:05:06.951Z,96821.73
2023-03-27T14:07:58.122Z,96828.50
2023-03-27T14:10:32.685Z,96844.13
2023-03-27T14:13:12.471Z,96850.83
2023-03-27T14:15:58.229Z,96852.67
2023-03-27T14:19:07.552Z,96862.27
2023-03-27T14:21:53.441Z,96866.04
2023-03-27T14:24:27.434Z,96869.14
2023-03-27T14:27:03.403Z,96871.83
2023-03-27T14:29:30.048Z,96876.00
2023-03-27T14:32:07.287Z,96884.06
2023-03-27T14:34:40.566Z,96887.38
2023-03-27T14:37:32.428Z,96895.34
2023-03-27T14:40:17.287Z,96908.63
2023-03-27T14:42:48.945Z,96913.57
2023-03-27T14:45:17.426Z,96914.64
2023-03-27T14:47:46.851Z,96925.89
2023-03-27T14:50:14.853Z,96931.00
2023-03-27T14:52:42.849Z,96935.30
2023-03-27T14:55:31.674Z,96941.30
2023-03-27T14:58:18.517Z,96949.88
2023-03-27T15:00:57.268Z,96954.66
2023-03-27T15:03:26.744Z,96965.70
2023-03-27T15:05:55.900Z,96969.04
2023-03-27T15:08:24.283Z,96978.14
2023-03-27T15:11:32.369Z,96981.05
2023-03-27T15:14:17.357Z,96987.77
2023-03-27T15:16:50.562Z,96991.66
2023-03-27T15:19:20.004Z,96993.66
2023-03-27T15:21:54.425Z,96998.23
2023-03-27T15:24:20.991Z,97004.36
2023-03-27T15:26:49.909Z,97008.95
2023-03-27T15:29:23.052Z,97007.05
2023-03-27T15:31:51.108Z,97015.31
2023-03-27T15:34:35.805Z,97019.96
2023-03-27T15:37:05.332Z,97021.15
2023-03-27T15:39:32.472Z,97016.14
2023-03-27T15:42:03.729Z,97020.70
2023-03-27T15:44:31.407Z,97029.36
2023-03-27T15:46:59.065Z,97032.46
2023-03-27T15:49:25.582Z,97035.77
2023-03-27T15:51:52.277Z,97044.71
2023-03-27T15:54:23.621Z,97040.44
2023-03-27T15:56:50.323Z,97041.55
2023-03-27T15:59:16.876Z,97049.34
2023-03-27T16:01:50.241Z,97055.89
2023-03-27T16:04:21.368Z,97060.44
2023-03-27T16:06:49.888Z,97062.48
2023-03-27T16:09:30.035Z,97066.73
2023-03-27T16:11:57.259Z,97075.48
2023-03-27T16:14:39.781Z,97072.40
2023-03-27T16:17:09.253Z,97075.50
2023-03-27T16:19:42.913Z,97080.66
2023-03-27T16:22:09.593Z,97081.31
2023-03-27T16:24:36.131Z,97085.27
2023-03-27T16:27:02.905Z,97082.59
2023-03-27T16:29:29.547Z,97085.86
2023-03-27T16:31:56.038Z,97086.73
2023-03-27T16:34:23.792Z,97095.40
2023-03-27T16:36:50.361Z,97095.00
2023-03-27T16:39:16.685Z,97098.09
2023-03-27T16:41:43.196Z,97099.23
2023-03-27T16:44:09.749Z,97104.77
2023-03-27T16:46:36.164Z,97109.06
2023-03-27T16:49:02.697Z,97112.64
2023-03-27T16:51:29.187Z,97110.60
2023-03-27T16:53:55.703Z,97115.20
2023-03-27T16:56:22.428Z,97121.80
2023-03-27T16:58:49.048Z,97130.80
2023-03-27T17:01:15.675Z,97140.23
2023-03-27T17:03:42.179Z,97142.30
2023-03-27T17:06:09.723Z,97145.80
2023-03-27T17:08:36.597Z,97152.17
2023-03-27T17:11:05.714Z,97152.81
2023-03-27T17:13:32.381Z,97157.09
2023-03-27T17:15:59.822Z,97162.13
2023-03-27T17:18:26.542Z,97163.65
2023-03-27T17:20:54.462Z,97167.06
2023-03-27T17:23:21.046Z,97169.62
2023-03-27T17:25:47.885Z,97174.00
2023-03-27T17:28:14.420Z,97179.05
2023-03-27T17:30:46.901Z,97183.20
2023-03-27T17:33:19.709Z,97187.68
2023-03-27T17:35:46.070Z,97186.31
2023-03-27T17:38:12.480Z,97188.67
2023-03-27T17:40:39.679Z,97193.27
2023-03-27T17:43:06.815Z,97198.80
2023-03-27T17:45:33.523Z,97204.48
2023-03-27T17:48:00.202Z,97206.14
2023-03-27T17:50:26.872Z,97216.02
2023-03-27T17:52:53.956Z,97221.85
2023-03-27T17:55:20.447Z,97222.49
2023-03-27T17:57:53.127Z,97228.14
2023-03-27T18:00:25.148Z,97231.62
2023-03-27T18:02:51.716Z,97234.19
2023-03-27T18:05:20.837Z,97240.56
2023-03-27T18:07:47.325Z,97243.16
2023-03-27T18:10:14.005Z,97248.36
2023-03-27T18:12:40.380Z,97251.27
2023-03-27T18:15:07.226Z,97249.16
2023-03-27T18:17:33.662Z,97253.34
2023-03-27T18:20:00.549Z,97255.41
2023-03-27T18:22:27.171Z,97256.86
2023-03-27T18:24:53.635Z,97262.82
2023-03-27T18:27:19.930Z,97266.30
2023-03-27T18:29:46.377Z,97274.52
2023-03-27T18:32:12.846Z,97277.98
2023-03-27T18:34:39.164Z,97280.02
2023-03-27T18:37:05.656Z,97284.34
2023-03-27T18:39:32.403Z,97283.88
2023-03-27T18:41:58.782Z,97285.20
2023-03-27T18:44:26.911Z,97287.05
2023-03-27T18:46:53.261Z,97290.59
2023-03-27T18:49:24.962Z,97291.45
2023-03-27T18:51:52.249Z,97290.73
2023-03-27T18:54:18.728Z,97288.21
2023-03-27T18:56:45.146Z,97297.39
2023-03-27T18:59:12.038Z,97294.84
2023-03-27T19:01:39.153Z,97300.96
2023-03-27T19:04:05.642Z,97301.77
2023-03-27T19:06:43.521Z,97307.88
2023-03-27T19:09:10.090Z,97308.16
2023-03-27T19:11:38.065Z,97310.63
2023-03-27T19:14:23.549Z,97312.88
2023-03-27T19:17:08.758Z,97316.69
2023-03-27T19:20:10.549Z,97315.80
2023-03-27T19:22:51.462Z,97316.75
2023-03-27T19:25:47.804Z,97320.99
2023-03-27T19:28:14.422Z,97320.46
2023-03-27T19:30:40.958Z,97318.56
2023-03-27T19:33:07.522Z,97321.90
2023-03-27T19:35:34.077Z,97322.02
2023-03-27T19:38:00.515Z,97321.78
2023-03-27T19:40:26.984Z,97319.39
2023-03-27T19:42:53.416Z,97320.27
2023-03-27T19:45:21.895Z,97320.91
2023-03-27T19:47:48.384Z,97321.60
2023-03-27T19:50:15.034Z,97327.14
2023-03-27T19:53:05.315Z,97327.81
2023-03-27T19:55:35.029Z,97327.61
2023-03-27T19:58:01.558Z,97328.73
2023-03-27T20:00:29.384Z,97325.54
2023-03-27T20:02:57.702Z,97332.89
2023-03-27T20:05:24.327Z,97335.14
2023-03-27T20:07:50.658Z,97335.52
2023-03-27T20:10:17.151Z,97339.65
2023-03-27T20:12:43.946Z,97338.42
2023-03-27T20:15:12.301Z,97339.41
2023-03-27T20:17:41.850Z,97344.59
2023-03-27T20:20:08.586Z,97342.96
2023-03-27T20:22:38.728Z,97348.97
2023-03-27T20:25:13.847Z,97349.73
2023-03-27T20:27:41.886Z,97348.31
2023-03-27T20:30:08.422Z,97349.64
2023-03-27T20:32:35.644Z,97347.73
2023-03-27T20:35:07.323Z,97346.03
2023-03-27T20:37:40.293Z,97349.10
2023-03-27T20:40:12.775Z,97350.30
2023-03-27T20:42:39.102Z,97349.61
2023-03-27T20:45:06.106Z,97353.27
2023-03-27T20:47:35.732Z,97353.19
2023-03-27T20:50:02.129Z,97352.33
2023-03-27T20:52:28.782Z,97354.49
2023-03-27T20:54:55.104Z,97356.41
2023-03-27T20:57:21.699Z,97359.02
2023-03-27T20:59:48.546Z,97357.94
2023-03-27T21:02:16.354Z,97357.02
2023-03-27T21:04:42.988Z,97353.55
2023-03-27T21:07:09.805Z,97356.47
2023-03-27T21:09:36.163Z,97357.70
2023-03-27T21:12:02.613Z,97355.58
2023-03-27T21:14:29.230Z,97355.65
2023-03-27T21:16:55.588Z,97353.73
2023-03-27T21:19:21.957Z,97357.08
2023-03-27T21:21:48.501Z,97354.45
2023-03-27T21:24:15.015Z,97350.15
2023-03-27T21:26:41.455Z,97355.50
2023-03-27T21:29:08.125Z,97359.30
2023-03-27T21:31:34.647Z,97353.77
2023-03-27T21:34:00.993Z,97356.90
2023-03-27T21:36:29.500Z,97359.31
2023-03-27T21:38:57.838Z,97360.95
2023-03-27T21:41:25.080Z,97361.23
2023-03-27T21:43:52.520Z,97366.75
2023-03-27T21:46:19.294Z,97368.21
2023-03-27T21:48:49.967Z,97371.85
2023-03-27T21:51:20.342Z,97368.54
2023-03-27T21:53:46.782Z,97366.52
2023-03-27T21:56:13.103Z,97365.21
2023-03-27T21:58:39.461Z,97365.77
2023-03-27T22:01:06.144Z,97364.80
2023-03-27T22:03:32.475Z,97366.23
2023-03-27T22:08:36.122Z,97368.60
2023-03-27T22:11:02.543Z,97370.66
2023-03-27T22:13:29.434Z,97369.89
2023-03-27T22:15:57.021Z,97370.64
2023-03-27T22:18:23.575Z,97368.66
2023-03-27T22:20:49.871Z,97375.31
2023-03-27T22:23:16.245Z,97372.15
2023-03-27T22:25:42.553Z,97373.01
2023-03-27T22:28:08.995Z,97371.27
2023-03-27T22:30:35.306Z,97368.86
2023-03-27T22:33:01.721Z,97369.27
2023-03-27T22:35:28.081Z,97371.66
2023-03-27T22:37:54.428Z,97373.20
2023-03-27T22:40:20.786Z,97371.55
2023-03-27T22:42:47.121Z,97372.61
2023-03-27T22:45:13.452Z,97373.52
2023-03-27T22:47:39.764Z,97373.39
2023-03-27T22:50:06.501Z,97373.30
2023-03-27T22:52:32.797Z,97374.73
2023-03-27T22:54:59.126Z,97374.80
2023-03-27T22:57:25.401Z,97374.02
2023-03-27T22:59:51.655Z,97374.23
2023-03-27T23:02:17.993Z,97379.70
2023-03-27T23:04:44.395Z,97382.31
2023-03-27T23:07:10.775Z,97379.52
2023-03-27T23:09:37.149Z,97381.61
2023-03-27T23:12:03.593Z,97382.52
2023-03-27T23:14:29.921Z,97381.60
2023-03-27T23:16:56.273Z,97385.55
2023-03-27T23:19:22.642Z,97389.63
2023-03-27T23:21:48.942Z,97386.63
2023-03-27T23:24:15.276Z,97386.23
2023-03-27T23:26:41.689Z,97382.39
2023-03-27T23:29:08.142Z,97383.39
2023-03-27T23:31:34.563Z,97384.58
2023-03-27T23:34:01.104Z,97386.27
2023-03-27T23:36:27.441Z,97389.67
2023-03-27T23:38:53.817Z,97394.26
2023-03-27T23:41:20.317Z,97397.65
2023-03-27T23:43:47.114Z,97398.02
2023-03-27T23:46:13.617Z,97402.10
2023-03-27T23:48:41.199Z,97400.95
2023-03-27T23:51:08.361Z,97403.07
2023-03-27T23:53:35.208Z,97406.34
2023-03-27T23:56:01.970Z,97406.40
2023-03-27T23:58:28.678Z,97408.33
